地図

経路データ

SID SEASON NUMBER BASIN SUBBASIN NAME ISO_TIME NATURE LAT LON WMO_WIND WMO_PRES WMO_AGENCY TRACK_TYPE DIST2LAND LANDFALL IFLAG USA_AGENCY USA_ATCF_ID USA_LAT USA_LON USA_RECORD USA_STATUS USA_WIND USA_PRES USA_SSHS USA_R34_NE USA_R34_SE USA_R34_SW USA_R34_NW USA_R50_NE USA_R50_SE USA_R50_SW USA_R50_NW USA_R64_NE USA_R64_SE USA_R64_SW USA_R64_NW USA_POCI USA_ROCI USA_RMW USA_EYE TOKYO_LAT TOKYO_LON TOKYO_GRADE TOKYO_WIND TOKYO_PRES TOKYO_R50_DIR TOKYO_R50_LONG TOKYO_R50_SHORT TOKYO_R30_DIR TOKYO_R30_LONG TOKYO_R30_SHORT TOKYO_LAND CMA_LAT CMA_LON CMA_CAT CMA_WIND CMA_PRES HKO_LAT HKO_LON HKO_CAT HKO_WIND HKO_PRES NEWDELHI_LAT NEWDELHI_LON NEWDELHI_GRADE NEWDELHI_WIND NEWDELHI_PRES NEWDELHI_CI NEWDELHI_DP NEWDELHI_POCI REUNION_LAT REUNION_LON REUNION_TYPE REUNION_WIND REUNION_PRES REUNION_TNUM REUNION_CI REUNION_RMW REUNION_R34_NE REUNION_R34_SE REUNION_R34_SW REUNION_R34_NW REUNION_R50_NE REUNION_R50_SE REUNION_R50_SW REUNION_R50_NW REUNION_R64_NE REUNION_R64_SE REUNION_R64_SW REUNION_R64_NW BOM_LAT BOM_LON BOM_TYPE BOM_WIND BOM_PRES BOM_TNUM BOM_CI BOM_RMW BOM_R34_NE BOM_R34_SE BOM_R34_SW BOM_R34_NW BOM_R50_NE BOM_R50_SE BOM_R50_SW BOM_R50_NW BOM_R64_NE BOM_R64_SE BOM_R64_SW BOM_R64_NW BOM_ROCI BOM_POCI BOM_EYE BOM_POS_METHOD BOM_PRES_METHOD NADI_LAT NADI_LON NADI_CAT NADI_WIND NADI_PRES WELLINGTON_LAT WELLINGTON_LON WELLINGTON_WIND WELLINGTON_PRES DS824_LAT DS824_LON DS824_STAGE DS824_WIND DS824_PRES TD9636_LAT TD9636_LON TD9636_STAGE TD9636_WIND TD9636_PRES TD9635_LAT TD9635_LON TD9635_WIND TD9635_PRES TD9635_ROCI NEUMANN_LAT NEUMANN_LON NEUMANN_CLASS NEUMANN_WIND NEUMANN_PRES MLC_LAT MLC_LON MLC_CLASS MLC_WIND MLC_PRES USA_GUST BOM_GUST BOM_GUST_PER REUNION_GUST REUNION_GUST_PER USA_SEAHGT USA_SEARAD_NE USA_SEARAD_SE USA_SEARAD_SW USA_SEARAD_NW STORM_SPEED STORM_DIR
1947236N09138 1947 58 WP MM INEZ 1947-08-23 12:00:00 NR 9.10000 137.900 main 1127 1124 __________O___ -1 9.10000 137.900 7 12 305
1947236N09138 1947 58 WP MM INEZ 1947-08-23 15:00:00 NR 9.43813 137.415 main 1149 1149 __________P___ -1 9.43813 137.415 7 12 305
1947236N09138 1947 58 WP MM INEZ 1947-08-23 18:00:00 NR 9.77073 136.944 main 1157 1121 __________P___ -1 9.77073 136.944 7 11 306
1947236N09138 1947 58 WP MM INEZ 1947-08-23 21:00:00 NR 10.0929 136.500 main 1121 1086 __________P___ -1 10.0929 136.500 7 10 307
1947236N09138 1947 58 WP MM INEZ 1947-08-24 00:00:00 NR 10.4000 136.100 main 1086 1061 __________O___ -1 10.4000 136.100 7 10 309
1947236N09138 1947 58 WP MM INEZ 1947-08-24 03:00:00 NR 10.6906 135.752 main 1063 1035 __________P___ -1 10.6906 135.752 7 9 312
1947236N09138 1947 58 WP MM INEZ 1947-08-24 06:00:00 NR 10.9771 135.447 main 1027 1010 __________P___ -1 10.9771 135.447 7 8 316
1947236N09138 1947 58 WP MM INEZ 1947-08-24 09:00:00 NR 11.2751 135.168 main 1013 986 __________P___ -1 11.2751 135.168 7 8 319
1947236N09138 1947 58 WP MM INEZ 1947-08-24 12:00:00 NR 11.6000 134.900 main 989 964 __________O___ -1 11.6000 134.900 7 9 322
1947236N09138 1947 58 WP MM INEZ 1947-08-24 15:00:00 NR 11.9875 134.606 main 966 939 __________P___ -1 11.9875 134.606 7 10 325
1947236N09138 1947 58 WP MM INEZ 1947-08-24 18:00:00 NR 12.4000 134.320 main 939 923 __________P___ -1 12.4000 134.320 7 10 327
1947236N09138 1947 58 WP MM INEZ 1947-08-24 21:00:00 NR 12.8125 134.049 main 915 901 __________P___ -1 12.8125 134.049 7 10 328
1947236N09138 1947 58 WP MM INEZ 1947-08-25 00:00:00 NR 13.2000 133.800 main 904 889 __________O___ -1 13.2000 133.800 7 9 328
1947236N09138 1947 58 WP MM INEZ 1947-08-25 03:00:00 NR 13.5285 133.586 main 890 872 __________P___ -1 13.5285 133.586 7 7 328
1947236N09138 1947 58 WP MM INEZ 1947-08-25 06:00:00 NR 13.8297 133.392 main 874 860 __________P___ -1 13.8297 133.392 7 7 328
1947236N09138 1947 58 WP MM INEZ 1947-08-25 09:00:00 NR 14.1160 133.202 main 860 845 __________P___ -1 14.1160 133.202 7 7 326
1947236N09138 1947 58 WP MM INEZ 1947-08-25 12:00:00 NR 14.4000 133.000 main 848 834 __________O___ -1 14.4000 133.000 7 7 324
1947236N09138 1947 58 WP MM INEZ 1947-08-25 15:00:00 NR 14.7040 132.768 main 837 819 __________P___ -1 14.7040 132.768 7 8 323
1947236N09138 1947 58 WP MM INEZ 1947-08-25 18:00:00 NR 15.0074 132.522 main 819 808 __________P___ -1 15.0074 132.522 7 8 321
1947236N09138 1947 58 WP MM INEZ 1947-08-25 21:00:00 NR 15.3071 132.265 main 812 797 __________P___ -1 15.3071 132.265 7 8 320
1947236N09138 1947 58 WP MM INEZ 1947-08-26 00:00:00 NR 15.6000 132.000 main 798 796 __________O___ -1 15.6000 132.000 3 8 319
1947236N09138 1947 58 WP MM INEZ 1947-08-26 03:00:00 NR 15.8819 131.752 main 796 660 __________P___ -1 15.8819 131.752 3 14 254
1947236N09138 1947 58 WP MM INEZ 1947-08-26 06:00:00 TS 15.2326 130.640 main 645 593 O________OPO__ jtwc_wp WP091947 14.0000 129.500 65 1 14.0000 129.500 TC 65 16.1571 131.494 3 14.0000 129.500 65 988 240 18 245
1947236N09138 1947 58 WP MM INEZ 1947-08-26 09:00:00 TS 15.1005 130.031 main 584 549 P________PPP__ WP091947 14.2151 129.243 70 1 14.2151 129.243 TC 70 16.4287 131.214 3 14.2151 129.243 70 986 240 10 267
1947236N09138 1947 58 WP MM INEZ 1947-08-26 12:00:00 TS 15.1769 129.585 main 556 536 O________OOO__ jtwc_wp WP091947 14.5000 129.000 75 1 14.5000 129.000 TC 75 16.7000 130.900 4 14.5000 129.000 75 985 240 8 293
1947236N09138 1947 58 WP MM INEZ 1947-08-26 15:00:00 TS 15.4203 129.233 main 536 536 P________PPP__ WP091947 14.9050 128.785 75 1 14.9050 128.785 TC 75 16.9663 130.576 4 14.9050 128.785 75 984 270 9 321
1947236N09138 1947 58 WP MM INEZ 1947-08-26 18:00:00 TS 15.8585 129.003 main 542 537 O________OPO__ jtwc_wp WP091947 15.4000 128.600 75 1 15.4000 128.600 TC 75 17.2340 130.211 4 15.4000 128.600 75 983 300 10 335
1947236N09138 1947 58 WP MM INEZ 1947-08-26 21:00:00 TS 16.3343 128.791 main 543 539 P________PPP__ WP091947 15.9424 128.457 82 1 15.9424 128.457 TC 82 17.5097 129.791 4 15.9424 128.457 82 980 300 11 336
1947236N09138 1947 58 WP MM INEZ 1947-08-27 00:00:00 TS 16.8250 128.550 main 555 551 O________OOO__ jtwc_wp WP091947 16.5000 128.300 90 2 16.5000 128.300 TC 90 17.8000 129.300 4 16.5000 128.300 90 977 300 11 332
1947236N09138 1947 58 WP MM INEZ 1947-08-27 03:00:00 TS 17.2981 128.247 main 557 557 P________PPP__ WP091947 17.0299 128.087 82 1 17.0299 128.087 TC 82 18.1028 128.726 4 17.0299 128.087 82 978 300 11 324
1947236N09138 1947 58 WP MM INEZ 1947-08-27 06:00:00 TS 17.7301 127.870 main 565 533 O________OPO__ jtwc_wp WP091947 17.5000 127.800 75 1 17.5000 127.800 TC 75 18.4203 128.082 4 17.5000 127.800 75 980 300 11 315
1947236N09138 1947 58 WP MM INEZ 1947-08-27 09:00:00 TS 18.0925 127.422 main 533 495 P________PPP__ WP091947 17.8725 127.430 75 1 17.8725 127.430 TC 75 18.7526 127.397 4 17.8725 127.430 75 981 300 11 308
1947236N09138 1947 58 WP MM INEZ 1947-08-27 12:00:00 TS 18.4250 126.925 main 485 444 O________OOO__ jtwc_wp WP091947 18.2000 127.000 75 1 18.2000 127.000 TC 75 19.1000 126.700 4 18.2000 127.000 75 983 300 11 307
1947236N09138 1947 58 WP MM INEZ 1947-08-27 15:00:00 TS 18.7689 126.470 main 444 397 P________PPP__ WP091947 18.5344 126.617 80 1 18.5344 126.617 TC 80 19.4723 126.028 4 18.5344 126.617 80 979 300 12 307
1947236N09138 1947 58 WP MM INEZ 1947-08-27 18:00:00 TS 19.1392 125.912 main 387 328 O________OPO__ jtwc_wp WP091947 18.9000 126.100 85 2 18.9000 126.100 TC 85 19.8568 125.350 4 18.9000 126.100 85 975 300 15 301
1947236N09138 1947 58 WP MM INEZ 1947-08-27 21:00:00 TS 19.5502 125.106 main 323 275 P________PPP__ WP091947 19.3210 125.251 92 2 19.3210 125.251 TC 92 20.2379 124.672 4 19.3210 125.251 92 969 330 17 300
1947236N09138 1947 58 WP MM INEZ 1947-08-28 00:00:00 TS 20.0000 124.300 main 275 268 O________OOO__ jtwc_wp WP091947 19.8000 124.400 100 3 19.8000 124.400 TC 100 20.6000 124.000 4 19.8000 124.400 100 964 360 16 306
1947236N09138 1947 58 WP MM INEZ 1947-08-28 03:00:00 TS 20.4938 123.740 main 276 272 P________PPP__ WP091947 20.3569 123.875 100 3 20.3569 123.875 TC 100 20.9045 123.337 4 20.3569 123.875 100 962 390 14 316
1947236N09138 1947 58 WP MM INEZ 1947-08-28 06:00:00 TS 20.9729 123.296 main 267 217 O________OPO__ jtwc_wp WP091947 20.9000 123.500 100 3 20.9000 123.500 TC 100 21.1915 122.683 4 20.9000 123.500 100 960 420 12 316
1947236N09138 1947 58 WP MM INEZ 1947-08-28 09:00:00 TS 21.3568 122.849 main 204 166 P________PPP__ WP091947 21.3149 123.120 95 2 21.3149 123.120 TC 95 21.4827 122.037 4 21.3149 123.120 95 962 420 11 314
1947236N09138 1947 58 WP MM INEZ 1947-08-28 12:00:00 TS 21.7250 122.450 main 166 123 O________OOO__ jtwc_wp WP091947 21.7000 122.800 90 2 21.7000 122.800 TC 90 21.8000 121.400 4 21.7000 122.800 90 964 420 11 318
1947236N09138 1947 58 WP MM INEZ 1947-08-28 15:00:00 TS 22.1490 122.090 main 123 68 P________PPP__ WP091947 22.1349 122.542 90 2 22.1349 122.542 TC 90 22.1916 120.732 4 22.1349 122.542 90 966 420 11 323
1947236N09138 1947 58 WP MM INEZ 1947-08-28 18:00:00 TS 22.6019 121.744 main 60 0 O________OPO__ jtwc_wp WP091947 22.6000 122.300 90 2 22.6000 122.300 TC 90 22.6077 120.076 4 22.6000 122.300 90 969 420 12 324
1947236N09138 1947 58 WP MM INEZ 1947-08-28 21:00:00 TS 23.0800 121.359 main 0 0 P________PPP__ WP091947 23.1001 121.993 85 2 23.1001 121.993 TC 85 23.0199 119.457 4 23.1001 121.993 85 971 450 12 324
1947236N09138 1947 58 WP MM INEZ 1947-08-29 00:00:00 TS 23.5500 121.000 main 0 0 O________OOO__ jtwc_wp WP091947 23.6000 121.700 80 1 23.6000 121.700 TC 80 23.4000 118.900 4 23.6000 121.700 80 973 480 10 328
1947236N09138 1947 58 WP MM INEZ 1947-08-29 03:00:00 TS 23.9640 120.755 main 0 0 P________PPP__ WP091947 24.0422 121.522 80 1 24.0422 121.522 TC 80 23.7273 118.423 4 24.0422 121.522 80 974 510 9 340
1947236N09138 1947 58 WP MM INEZ 1947-08-29 06:00:00 TS 24.4045 120.654 main 0 0 O________OPO__ jtwc_wp WP091947 24.5000 121.300 80 1 24.5000 121.300 TC 80 24.0098 118.012 4 24.5000 121.300 80 976 540 10 342
1947236N09138 1947 58 WP MM INEZ 1947-08-29 09:00:00 TS 24.9468 120.394 main 45 45 P________PPP__ WP091947 25.0580 120.843 77 1 25.0580 120.843 TC 77 24.2625 117.645 4 25.0580 120.843 77 977 570 12 338
1947236N09138 1947 58 WP MM INEZ 1947-08-29 12:00:00 TS 25.5154 120.162 main 51 49 O________OOO__ jtwc_wp WP091947 25.6000 120.400 75 1 25.6000 120.400 TC 75 24.5000 117.300 4 25.6000 120.400 75 978 600 11 352
1947236N09138 1947 58 WP MM INEZ 1947-08-29 15:00:00 TS 26.0222 120.219 main 49 22 P________P_P__ WP091947 26.0222 120.219 72 1 26.0222 120.219 TC 72 4 26.0222 120.219 72 978 600 9 356
1947236N09138 1947 58 WP MM INEZ 1947-08-29 18:00:00 TS 26.4000 120.100 main 22 0 O________O_O__ jtwc_wp WP091947 26.4000 120.100 70 1 26.4000 120.100 TC 70 4 26.4000 120.100 70 979 600 8 336
1947236N09138 1947 58 WP MM INEZ 1947-08-29 21:00:00 TS 26.7626 119.857 main 0 0 P________P_P__ WP091947 26.7626 119.857 70 1 26.7626 119.857 TC 70 4 26.7626 119.857 70 979 510 9 331
1947236N09138 1947 58 WP MM INEZ 1947-08-30 00:00:00 TS 27.2000 119.600 main 0 0 O________O_O__ jtwc_wp WP091947 27.2000 119.600 70 1 27.2000 119.600 TC 70 27.2000 119.600 70 979 420 11 338
1947236N09138 1947 58 WP MM INEZ 1947-08-30 03:00:00 TS 27.7975 119.378 main 0 0 P________P_P__ WP091947 27.7975 119.378 70 1 27.7975 119.378 TC 70 27.7975 119.378 70 979 420 14 345
1947236N09138 1947 58 WP MM INEZ 1947-08-30 06:00:00 TS 28.5000 119.200 main 0 0 O________O_O__ jtwc_wp WP091947 28.5000 119.200 70 1 28.5000 119.200 TC 70 28.5000 119.200 70 980 420 16 352
1947236N09138 1947 58 WP MM INEZ 1947-08-30 09:00:00 TS 29.3862 119.133 main 0 0 P________P_P__ WP091947 29.4221 119.145 70 1 29.4221 119.145 TC 70 29.2425 119.083 70 980 390 15 354
1947236N09138 1947 58 WP MM INEZ 1947-08-30 12:00:00 TS 30.0000 119.000 main 0 0 O________O_O__ jtwc_wp WP091947 30.0000 119.000 70 1 30.0000 119.000 TC 70 30.0000 119.000 70 980 360 5 321
1947236N09138 1947 58 WP MM INEZ 1947-08-30 15:00:00 TS 29.7572 118.790 main 0 0 P________P____ WP091947 29.7572 118.790 60 0 29.7572 118.790 TC 60 13 221
1947236N09138 1947 58 WP MM INEZ 1947-08-30 18:00:00 TS 29.0000 118.000 main 0 0 O________O____ jtwc_wp WP091947 29.0000 118.000 50 0 29.0000 118.000 TC 50 29 235
1947236N09138 1947 58 WP MM INEZ 1947-08-30 21:00:00 TS 28.0847 116.066 main 0 0 P________P____ WP091947 28.0847 116.066 42 0 28.0847 116.066 TC 42 41 240
1947236N09138 1947 58 WP MM INEZ 1947-08-31 00:00:00 TS 27.0000 114.000 main 0 0 O________O____ jtwc_wp WP091947 27.0000 114.000 35 0 27.0000 114.000 TC 35 37 235
1947236N09138 1947 58 WP MM INEZ 1947-08-31 03:00:00 TS 25.9692 112.731 main 0 0 P________P____ WP091947 25.9692 112.731 32 -1 25.9692 112.731 TC 32 27 222
1947236N09138 1947 58 WP MM INEZ 1947-08-31 06:00:00 TS 25.0000 112.000 main 0 O________O____ jtwc_wp WP091947 25.0000 112.000 30 -1 25.0000 112.000 TC 30 24 214

デジタル台風データ・検索

IBTrACS Databaseについて

本データベースは、米国NOAAが公開する1842年以降の世界の熱帯低気圧のベストトラックデータアーカイブInternational Best Track Archive for Climate Stewardship (IBTrACS)を、ウェブで閲覧しやすい形式に変換したものです。

最終更新日:2021-12-01